sensor_id;sensor_type;location;lat;lon;timestamp;pressure;altitude;pressure_sealevel;temperature;humidity
46886;BME280;32622;48.202;11.326;2022-09-30T00:00:09;1008.39;;;11.32;29.56
46886;BME280;32622;48.202;11.326;2022-09-30T00:02:12;1008.47;;;11.27;29.24
46886;BME280;32622;48.202;11.326;2022-09-30T00:04:17;1008.45;;;11.61;29.24
46886;BME280;32622;48.202;11.326;2022-09-30T00:06:21;1008.49;;;11.69;29.12
46886;BME280;32622;48.202;11.326;2022-09-30T00:08:25;1008.47;;;11.83;29.02
46886;BME280;32622;48.202;11.326;2022-09-30T00:10:28;1008.49;;;11.73;29.00
46886;BME280;32622;48.202;11.326;2022-09-30T00:12:31;1008.49;;;11.75;28.83
46886;BME280;32622;48.202;11.326;2022-09-30T00:14:35;1008.50;;;11.77;28.90
46886;BME280;32622;48.202;11.326;2022-09-30T00:16:38;1008.63;;;11.20;29.00
46886;BME280;32622;48.202;11.326;2022-09-30T00:18:43;1008.60;;;11.37;28.80
46886;BME280;32622;48.202;11.326;2022-09-30T00:20:46;1008.73;;;10.70;29.70
46886;BME280;32622;48.202;11.326;2022-09-30T00:22:49;1008.72;;;10.89;29.23
46886;BME280;32622;48.202;11.326;2022-09-30T00:24:52;1008.76;;;10.86;29.29
46886;BME280;32622;48.202;11.326;2022-09-30T00:26:56;1008.80;;;10.96;29.52
46886;BME280;32622;48.202;11.326;2022-09-30T00:29:01;1008.95;;;10.40;30.05
46886;BME280;32622;48.202;11.326;2022-09-30T00:31:07;1008.82;;;11.09;29.53
46886;BME280;32622;48.202;11.326;2022-09-30T00:33:11;1009.44;;;8.50;31.48
46886;BME280;32622;48.202;11.326;2022-09-30T00:35:14;1009.58;;;7.84;33.14
46886;BME280;32622;48.202;11.326;2022-09-30T00:37:17;1008.95;;;10.39;30.74
46886;BME280;32622;48.202;11.326;2022-09-30T00:39:22;1008.99;;;10.30;30.17
46886;BME280;32622;48.202;11.326;2022-09-30T00:41:26;1009.29;;;9.10;31.93
46886;BME280;32622;48.202;11.326;2022-09-30T00:43:47;1009.03;;;10.12;30.88
46886;BME280;32622;48.202;11.326;2022-09-30T00:45:54;1009.03;;;10.13;30.47
46886;BME280;32622;48.202;11.326;2022-09-30T00:48:05;1008.96;;;10.34;30.65
46886;BME280;32622;48.202;11.326;2022-09-30T00:50:26;1008.98;;;10.56;30.62
46886;BME280;32622;48.202;11.326;2022-09-30T00:52:31;1008.98;;;10.70;30.21
46886;BME280;32622;48.202;11.326;2022-09-30T00:54:35;1008.90;;;11.07;30.08
46886;BME280;32622;48.202;11.326;2022-09-30T00:56:41;1008.92;;;10.82;29.79
46886;BME280;32622;48.202;11.326;2022-09-30T00:58:47;1008.89;;;11.03;29.41
46886;BME280;32622;48.202;11.326;2022-09-30T01:00:54;1008.86;;;11.25;29.41
46886;BME280;32622;48.202;11.326;2022-09-30T01:02:58;1008.84;;;11.44;29.08
46886;BME280;32622;48.202;11.326;2022-09-30T01:05:02;1008.91;;;11.04;29.59
46886;BME280;32622;48.202;11.326;2022-09-30T01:07:06;1009.25;;;9.78;30.53
46886;BME280;32622;48.202;11.326;2022-09-30T01:09:10;1009.14;;;10.32;29.89
46886;BME280;32622;48.202;11.326;2022-09-30T01:11:14;1009.07;;;10.69;29.90
46886;BME280;32622;48.202;11.326;2022-09-30T01:13:18;1008.98;;;11.01;29.59
46886;BME280;32622;48.202;11.326;2022-09-30T01:15:34;1008.99;;;10.77;29.52
46886;BME280;32622;48.202;11.326;2022-09-30T01:17:48;1008.95;;;11.04;29.60
46886;BME280;32622;48.202;11.326;2022-09-30T01:20:12;1009.14;;;10.35;29.66
46886;BME280;32622;48.202;11.326;2022-09-30T01:22:31;1009.11;;;10.42;30.49
46886;BME280;32622;48.202;11.326;2022-09-30T01:27:34;1009.23;;;10.37;30.58
46886;BME280;32622;48.202;11.326;2022-09-30T01:30:06;1009.17;;;10.94;30.36
46886;BME280;32622;48.202;11.326;2022-09-30T01:32:19;1009.34;;;10.32;30.59
46886;BME280;32622;48.202;11.326;2022-09-30T01:34:34;1009.30;;;10.59;30.28
46886;BME280;32622;48.202;11.326;2022-09-30T01:36:55;1009.44;;;10.03;30.62
46886;BME280;32622;48.202;11.326;2022-09-30T01:39:09;1009.23;;;10.99;30.06
46886;BME280;32622;48.202;11.326;2022-09-30T01:41:21;1009.28;;;10.69;29.59
46886;BME280;32622;48.202;11.326;2022-09-30T01:43:29;1009.31;;;10.61;30.11
46886;BME280;32622;48.202;11.326;2022-09-30T01:45:39;1009.33;;;10.46;30.27
46886;BME280;32622;48.202;11.326;2022-09-30T01:47:49;1009.61;;;9.58;31.53
46886;BME280;32622;48.202;11.326;2022-09-30T01:49:58;1009.44;;;10.42;30.47
46886;BME280;32622;48.202;11.326;2022-09-30T01:52:06;1010.35;;;6.86;33.97
46886;BME280;32622;48.202;11.326;2022-09-30T01:54:16;1010.38;;;6.90;34.02
46886;BME280;32622;48.202;11.326;2022-09-30T01:56:28;1009.78;;;9.37;32.01
46886;BME280;32622;48.202;11.326;2022-09-30T01:58:39;1009.63;;;9.92;30.88
46886;BME280;32622;48.202;11.326;2022-09-30T02:00:47;1009.57;;;10.03;31.07
46886;BME280;32622;48.202;11.326;2022-09-30T02:02:57;1009.60;;;9.88;31.27
46886;BME280;32622;48.202;11.326;2022-09-30T02:05:06;1009.54;;;10.19;31.05
46886;BME280;32622;48.202;11.326;2022-09-30T02:07:14;1009.67;;;9.63;30.68
46886;BME280;32622;48.202;11.326;2022-09-30T02:09:25;1009.65;;;9.69;30.86
46886;BME280;32622;48.202;11.326;2022-09-30T02:11:32;1009.54;;;10.05;30.61
46886;BME280;32622;48.202;11.326;2022-09-30T02:13:40;1009.52;;;10.09;30.54
46886;BME280;32622;48.202;11.326;2022-09-30T02:15:47;1009.54;;;9.83;30.30
46886;BME280;32622;48.202;11.326;2022-09-30T02:17:57;1009.52;;;9.82;30.28
46886;BME280;32622;48.202;11.326;2022-09-30T02:20:04;1009.37;;;10.59;30.13
46886;BME280;32622;48.202;11.326;2022-09-30T02:22:14;1009.39;;;10.40;30.05
46886;BME280;32622;48.202;11.326;2022-09-30T02:24:20;1009.36;;;10.56;30.01
46886;BME280;32622;48.202;11.326;2022-09-30T02:26:27;1009.27;;;11.06;29.55
46886;BME280;32622;48.202;11.326;2022-09-30T02:28:35;1009.35;;;10.70;29.79
46886;BME280;32622;48.202;11.326;2022-09-30T02:30:44;1009.42;;;10.30;29.79
46886;BME280;32622;48.202;11.326;2022-09-30T02:32:52;1009.40;;;10.39;29.46
46886;BME280;32622;48.202;11.326;2022-09-30T02:35:02;1009.22;;;11.06;29.31
46886;BME280;32622;48.202;11.326;2022-09-30T02:37:11;1009.23;;;11.02;29.18
46886;BME280;32622;48.202;11.326;2022-09-30T02:39:21;1009.28;;;10.66;29.05
46886;BME280;32622;48.202;11.326;2022-09-30T02:41:29;1009.23;;;11.09;28.97
46886;BME280;32622;48.202;11.326;2022-09-30T02:43:36;1009.30;;;10.85;28.82
46886;BME280;32622;48.202;11.326;2022-09-30T02:45:45;1009.24;;;11.04;28.66
46886;BME280;32622;48.202;11.326;2022-09-30T02:48:02;1009.37;;;10.43;28.45
46886;BME280;32622;48.202;11.326;2022-09-30T02:50:11;1009.29;;;11.03;28.51
46886;BME280;32622;48.202;11.326;2022-09-30T02:52:24;1009.41;;;10.77;28.56
46886;BME280;32622;48.202;11.326;2022-09-30T02:54:33;1009.44;;;10.85;28.58
46886;BME280;32622;48.202;11.326;2022-09-30T02:56:47;1009.43;;;10.89;28.55
46886;BME280;32622;48.202;11.326;2022-09-30T02:58:54;1009.38;;;11.02;28.56
46886;BME280;32622;48.202;11.326;2022-09-30T03:00:59;1009.35;;;11.29;28.50
46886;BME280;32622;48.202;11.326;2022-09-30T03:03:06;1009.36;;;11.08;28.39
46886;BME280;32622;48.202;11.326;2022-09-30T03:05:12;1009.42;;;10.95;28.50
46886;BME280;32622;48.202;11.326;2022-09-30T03:07:16;1009.60;;;10.20;28.97
46886;BME280;32622;48.202;11.326;2022-09-30T03:09:24;1009.51;;;10.76;29.01
46886;BME280;32622;48.202;11.326;2022-09-30T03:11:29;1009.55;;;10.80;28.90
46886;BME280;32622;48.202;11.326;2022-09-30T03:13:59;1009.60;;;10.81;28.85
46886;BME280;32622;48.202;11.326;2022-09-30T03:16:15;1009.58;;;11.10;29.10
46886;BME280;32622;48.202;11.326;2022-09-30T03:18:35;1009.68;;;10.71;28.97
46886;BME280;32622;48.202;11.326;2022-09-30T03:20:48;1009.57;;;11.33;28.72
46886;BME280;32622;48.202;11.326;2022-09-30T03:23:14;1009.62;;;11.15;28.53
46886;BME280;32622;48.202;11.326;2022-09-30T03:25:27;1009.81;;;10.60;28.79
46886;BME280;32622;48.202;11.326;2022-09-30T03:27:40;1009.89;;;10.61;28.82
46886;BME280;32622;48.202;11.326;2022-09-30T03:29:52;1009.83;;;11.31;28.88
46886;BME280;32622;48.202;11.326;2022-09-30T03:32:09;1010.05;;;10.64;28.99
46886;BME280;32622;48.202;11.326;2022-09-30T03:34:20;1010.08;;;10.78;29.41
46886;BME280;32622;48.202;11.326;2022-09-30T03:36:30;1010.10;;;10.73;29.18
46886;BME280;32622;48.202;11.326;2022-09-30T03:38:46;1010.14;;;10.58;29.24
46886;BME280;32622;48.202;11.326;2022-09-30T03:40:59;1010.08;;;10.99;29.49
46886;BME280;32622;48.202;11.326;2022-09-30T03:43:11;1010.06;;;10.71;29.28
46886;BME280;32622;48.202;11.326;2022-09-30T03:45:26;1010.08;;;10.51;29.34
46886;BME280;32622;48.202;11.326;2022-09-30T03:47:36;1009.97;;;10.82;29.35
46886;BME280;32622;48.202;11.326;2022-09-30T03:49:43;1009.96;;;10.76;29.24
46886;BME280;32622;48.202;11.326;2022-09-30T03:51:49;1009.92;;;10.86;29.22
46886;BME280;32622;48.202;11.326;2022-09-30T03:53:52;1009.92;;;10.85;29.23
46886;BME280;32622;48.202;11.326;2022-09-30T03:55:56;1009.92;;;10.93;29.05
46886;BME280;32622;48.202;11.326;2022-09-30T03:58:00;1009.99;;;10.73;29.22
46886;BME280;32622;48.202;11.326;2022-09-30T04:00:05;1010.01;;;10.74;29.29
46886;BME280;32622;48.202;11.326;2022-09-30T04:02:09;1010.04;;;10.91;29.16
46886;BME280;32622;48.202;11.326;2022-09-30T04:04:12;1010.05;;;10.88;29.12
46886;BME280;32622;48.202;11.326;2022-09-30T04:06:16;1010.07;;;11.08;28.99
46886;BME280;32622;48.202;11.326;2022-09-30T04:08:20;1010.18;;;10.76;28.94
46886;BME280;32622;48.202;11.326;2022-09-30T04:10:24;1010.17;;;10.91;28.93
46886;BME280;32622;48.202;11.326;2022-09-30T04:12:29;1010.14;;;11.16;28.90
46886;BME280;32622;48.202;11.326;2022-09-30T04:14:33;1010.18;;;11.23;28.86
46886;BME280;32622;48.202;11.326;2022-09-30T04:16:36;1010.26;;;11.02;28.94
46886;BME280;32622;48.202;11.326;2022-09-30T04:18:49;1010.27;;;11.08;28.56
46886;BME280;32622;48.202;11.326;2022-09-30T04:21:32;1009.90;;;12.89;28.87
46886;BME280;32622;48.202;11.326;2022-09-30T04:23:36;1010.31;;;11.25;29.06
46886;BME280;32622;48.202;11.326;2022-09-30T04:27:08;1009.90;;;13.32;29.20
46886;BME280;32622;48.202;11.326;2022-09-30T04:29:12;1010.50;;;10.42;29.77
46886;BME280;32622;48.202;11.326;2022-09-30T04:31:15;1010.44;;;10.71;29.43
46886;BME280;32622;48.202;11.326;2022-09-30T04:33:18;1010.53;;;10.39;29.66
46886;BME280;32622;48.202;11.326;2022-09-30T04:35:21;1010.53;;;10.43;29.18
46886;BME280;32622;48.202;11.326;2022-09-30T04:37:24;1010.50;;;10.68;29.55
46886;BME280;32622;48.202;11.326;2022-09-30T04:39:28;1010.52;;;10.78;29.46
46886;BME280;32622;48.202;11.326;2022-09-30T04:41:31;1010.59;;;10.52;29.22
46886;BME280;32622;48.202;11.326;2022-09-30T04:43:34;1010.59;;;10.63;29.08
46886;BME280;32622;48.202;11.326;2022-09-30T04:45:42;1010.53;;;10.77;28.81
46886;BME280;32622;48.202;11.326;2022-09-30T04:47:45;1010.60;;;10.32;28.92
46886;BME280;32622;48.202;11.326;2022-09-30T04:49:48;1010.67;;;9.98;29.07
46886;BME280;32622;48.202;11.326;2022-09-30T04:51:51;1010.56;;;10.46;29.02
46886;BME280;32622;48.202;11.326;2022-09-30T04:53:55;1010.51;;;10.53;28.68
46886;BME280;32622;48.202;11.326;2022-09-30T04:55:59;1010.73;;;9.65;29.25
46886;BME280;32622;48.202;11.326;2022-09-30T04:58:02;1010.49;;;10.46;28.40
46886;BME280;32622;48.202;11.326;2022-09-30T05:00:06;1010.52;;;10.33;28.54
46886;BME280;32622;48.202;11.326;2022-09-30T05:02:10;1010.56;;;10.12;28.55
46886;BME280;32622;48.202;11.326;2022-09-30T05:04:13;1010.69;;;9.77;28.69
46886;BME280;32622;48.202;11.326;2022-09-30T05:06:16;1010.56;;;10.38;28.26
46886;BME280;32622;48.202;11.326;2022-09-30T05:08:20;1010.84;;;9.28;28.56
46886;BME280;32622;48.202;11.326;2022-09-30T05:10:24;1010.71;;;9.87;28.40
46886;BME280;32622;48.202;11.326;2022-09-30T05:12:27;1010.74;;;9.69;28.60
46886;BME280;32622;48.202;11.326;2022-09-30T05:14:30;1010.73;;;9.50;28.62
46886;BME280;32622;48.202;11.326;2022-09-30T05:16:34;1010.74;;;9.68;28.76
46886;BME280;32622;48.202;11.326;2022-09-30T05:18:38;1010.67;;;10.25;28.68
46886;BME280;32622;48.202;11.326;2022-09-30T05:20:42;1010.82;;;9.91;28.70
46886;BME280;32622;48.202;11.326;2022-09-30T05:22:45;1010.74;;;10.18;28.36
46886;BME280;32622;48.202;11.326;2022-09-30T05:24:48;1010.95;;;9.27;29.05
46886;BME280;32622;48.202;11.326;2022-09-30T05:26:51;1011.07;;;8.78;29.37
46886;BME280;32622;48.202;11.326;2022-09-30T05:28:57;1010.88;;;9.66;29.14
46886;BME280;32622;48.202;11.326;2022-09-30T05:31:02;1010.92;;;9.55;28.91
46886;BME280;32622;48.202;11.326;2022-09-30T05:33:06;1010.90;;;9.66;28.68
46886;BME280;32622;48.202;11.326;2022-09-30T05:35:09;1010.89;;;9.98;28.76
46886;BME280;32622;48.202;11.326;2022-09-30T05:37:13;1011.10;;;9.33;28.86
46886;BME280;32622;48.202;11.326;2022-09-30T05:39:16;1011.25;;;8.92;29.37
46886;BME280;32622;48.202;11.326;2022-09-30T05:41:20;1011.23;;;9.20;29.24
46886;BME280;32622;48.202;11.326;2022-09-30T05:43:24;1011.07;;;9.96;28.66
46886;BME280;32622;48.202;11.326;2022-09-30T05:45:27;1011.22;;;9.59;28.65
46886;BME280;32622;48.202;11.326;2022-09-30T05:47:30;1011.19;;;9.97;28.46
46886;BME280;32622;48.202;11.326;2022-09-30T05:49:34;1011.19;;;10.03;28.56
46886;BME280;32622;48.202;11.326;2022-09-30T05:51:37;1011.45;;;8.93;28.72
46886;BME280;32622;48.202;11.326;2022-09-30T05:53:41;1011.27;;;9.86;28.87
46886;BME280;32622;48.202;11.326;2022-09-30T05:55:45;1011.32;;;9.75;28.61
46886;BME280;32622;48.202;11.326;2022-09-30T05:57:49;1011.30;;;9.99;28.54
46886;BME280;32622;48.202;11.326;2022-09-30T05:59:53;1011.25;;;10.21;28.45
46886;BME280;32622;48.202;11.326;2022-09-30T06:01:59;1011.21;;;10.52;28.40
46886;BME280;32622;48.202;11.326;2022-09-30T06:04:02;1011.25;;;10.32;28.86
46886;BME280;32622;48.202;11.326;2022-09-30T06:06:06;1011.40;;;9.77;28.94
46886;BME280;32622;48.202;11.326;2022-09-30T06:08:09;1011.40;;;9.75;28.73
46886;BME280;32622;48.202;11.326;2022-09-30T06:10:13;1011.39;;;10.01;28.83
46886;BME280;32622;48.202;11.326;2022-09-30T06:12:16;1011.54;;;9.58;28.93
46886;BME280;32622;48.202;11.326;2022-09-30T06:14:19;1011.64;;;9.33;29.20
46886;BME280;32622;48.202;11.326;2022-09-30T06:16:23;1011.66;;;9.50;29.23
46886;BME280;32622;48.202;11.326;2022-09-30T06:18:27;1011.74;;;9.18;29.57
46886;BME280;32622;48.202;11.326;2022-09-30T06:20:31;1011.67;;;9.52;29.33
46886;BME280;32622;48.202;11.326;2022-09-30T06:22:34;1011.58;;;10.11;29.06
46886;BME280;32622;48.202;11.326;2022-09-30T06:24:38;1012.07;;;8.17;30.50
46886;BME280;32622;48.202;11.326;2022-09-30T06:26:41;1011.87;;;9.02;30.02
46886;BME280;32622;48.202;11.326;2022-09-30T06:28:44;1011.90;;;8.94;30.58
46886;BME280;32622;48.202;11.326;2022-09-30T06:30:47;1011.79;;;9.25;30.03
46886;BME280;32622;48.202;11.326;2022-09-30T06:32:51;1011.81;;;9.38;29.75
46886;BME280;32622;48.202;11.326;2022-09-30T06:34:54;1011.69;;;9.95;29.29
46886;BME280;32622;48.202;11.326;2022-09-30T06:36:57;1011.75;;;9.88;29.30
46886;BME280;32622;48.202;11.326;2022-09-30T06:39:02;1011.69;;;10.28;28.61
46886;BME280;32622;48.202;11.326;2022-09-30T06:41:06;1011.54;;;11.10;28.13
46886;BME280;32622;48.202;11.326;2022-09-30T06:43:10;1011.59;;;10.88;28.09
46886;BME280;32622;48.202;11.326;2022-09-30T06:45:14;1011.61;;;10.97;28.21
46886;BME280;32622;48.202;11.326;2022-09-30T06:47:17;1011.68;;;10.72;27.91
46886;BME280;32622;48.202;11.326;2022-09-30T06:49:20;1011.65;;;10.91;27.84
46886;BME280;32622;48.202;11.326;2022-09-30T06:51:24;1011.67;;;10.98;27.75
46886;BME280;32622;48.202;11.326;2022-09-30T06:53:27;1011.75;;;10.75;27.89
46886;BME280;32622;48.202;11.326;2022-09-30T06:55:31;1011.69;;;11.27;27.73
46886;BME280;32622;48.202;11.326;2022-09-30T06:57:35;1011.66;;;11.36;27.53
46886;BME280;32622;48.202;11.326;2022-09-30T06:59:38;1011.62;;;11.46;27.40
46886;BME280;32622;48.202;11.326;2022-09-30T07:01:42;1011.56;;;11.52;27.38
46886;BME280;32622;48.202;11.326;2022-09-30T07:03:46;1011.59;;;11.24;27.24
46886;BME280;32622;48.202;11.326;2022-09-30T07:05:55;1011.45;;;11.79;27.14
46886;BME280;32622;48.202;11.326;2022-09-30T07:07:58;1011.65;;;10.83;27.92
46886;BME280;32622;48.202;11.326;2022-09-30T07:10:02;1011.58;;;11.17;27.59
46886;BME280;32622;48.202;11.326;2022-09-30T07:12:06;1011.56;;;11.44;27.43
46886;BME280;32622;48.202;11.326;2022-09-30T07:14:08;1011.57;;;11.74;26.95
46886;BME280;32622;48.202;11.326;2022-09-30T07:16:11;1011.58;;;11.88;27.09
46886;BME280;32622;48.202;11.326;2022-09-30T07:18:14;1011.66;;;11.59;27.08
46886;BME280;32622;48.202;11.326;2022-09-30T07:20:16;1011.76;;;11.31;27.60
46886;BME280;32622;48.202;11.326;2022-09-30T07:22:19;1011.74;;;11.42;27.39
46886;BME280;32622;48.202;11.326;2022-09-30T07:24:21;1011.72;;;11.70;27.52
46886;BME280;32622;48.202;11.326;2022-09-30T07:26:25;1011.72;;;11.83;27.44
46886;BME280;32622;48.202;11.326;2022-09-30T07:28:30;1011.77;;;11.79;27.34
46886;BME280;32622;48.202;11.326;2022-09-30T07:30:33;1011.73;;;11.90;26.95
46886;BME280;32622;48.202;11.326;2022-09-30T07:32:35;1011.68;;;12.10;26.76
46886;BME280;32622;48.202;11.326;2022-09-30T07:34:38;1011.86;;;11.35;27.23
46886;BME280;32622;48.202;11.326;2022-09-30T07:36:41;1011.87;;;11.42;27.43
46886;BME280;32622;48.202;11.326;2022-09-30T07:38:44;1011.72;;;11.92;27.21
46886;BME280;32622;48.202;11.326;2022-09-30T07:40:53;1011.76;;;11.82;26.82
46886;BME280;32622;48.202;11.326;2022-09-30T07:43:36;1011.63;;;12.65;28.21
46886;BME280;32622;48.202;11.326;2022-09-30T07:45:40;1011.89;;;11.54;27.98
46886;BME280;32622;48.202;11.326;2022-09-30T07:47:43;1012.02;;;10.95;28.80
46886;BME280;32622;48.202;11.326;2022-09-30T07:49:47;1012.17;;;10.41;28.40
46886;BME280;32622;48.202;11.326;2022-09-30T07:51:51;1012.00;;;11.25;28.01
46886;BME280;32622;48.202;11.326;2022-09-30T07:53:57;1011.92;;;11.65;28.05
46886;BME280;32622;48.202;11.326;2022-09-30T07:56:02;1011.89;;;11.60;27.94
46886;BME280;32622;48.202;11.326;2022-09-30T07:58:06;1011.88;;;11.41;27.75
46886;BME280;32622;48.202;11.326;2022-09-30T08:00:10;1011.92;;;11.46;27.40
46886;BME280;32622;48.202;11.326;2022-09-30T08:02:16;1012.10;;;10.68;27.88
46886;BME280;32622;48.202;11.326;2022-09-30T08:04:24;1012.32;;;9.78;29.48
46886;BME280;32622;48.202;11.326;2022-09-30T08:06:29;1012.09;;;11.02;28.22
46886;BME280;32622;48.202;11.326;2022-09-30T08:08:32;1012.26;;;10.49;28.73
46886;BME280;32622;48.202;11.326;2022-09-30T08:10:35;1012.21;;;10.95;28.17
46886;BME280;32622;48.202;11.326;2022-09-30T08:12:37;1012.17;;;11.18;28.16
46886;BME280;32622;48.202;11.326;2022-09-30T08:14:40;1012.24;;;11.13;28.74
46886;BME280;32622;48.202;11.326;2022-09-30T08:16:43;1012.09;;;11.68;27.77
46886;BME280;32622;48.202;11.326;2022-09-30T08:18:47;1011.88;;;12.37;27.32
46886;BME280;32622;48.202;11.326;2022-09-30T08:20:50;1012.05;;;11.65;27.47
46886;BME280;32622;48.202;11.326;2022-09-30T08:22:54;1011.94;;;12.23;27.41
46886;BME280;32622;48.202;11.326;2022-09-30T08:24:57;1011.96;;;12.11;27.69
46886;BME280;32622;48.202;11.326;2022-09-30T08:27:01;1012.15;;;11.58;28.13
46886;BME280;32622;48.202;11.326;2022-09-30T08:29:04;1012.15;;;11.57;27.83
46886;BME280;32622;48.202;11.326;2022-09-30T08:31:10;1012.07;;;11.77;28.09
46886;BME280;32622;48.202;11.326;2022-09-30T08:33:14;1012.18;;;11.38;28.12
46886;BME280;32622;48.202;11.326;2022-09-30T08:35:18;1012.28;;;11.36;28.64
46886;BME280;32622;48.202;11.326;2022-09-30T08:37:21;1012.29;;;11.45;28.44
46886;BME280;32622;48.202;11.326;2022-09-30T08:39:25;1012.28;;;11.74;27.88
46886;BME280;32622;48.202;11.326;2022-09-30T08:41:41;1012.37;;;11.41;28.53
46886;BME280;32622;48.202;11.326;2022-09-30T08:43:55;1012.44;;;11.18;28.51
46886;BME280;32622;48.202;11.326;2022-09-30T08:46:10;1012.45;;;11.21;28.41
46886;BME280;32622;48.202;11.326;2022-09-30T08:48:26;1012.46;;;11.19;28.75
46886;BME280;32622;48.202;11.326;2022-09-30T08:50:35;1012.35;;;11.64;28.62
46886;BME280;32622;48.202;11.326;2022-09-30T08:52:46;1012.39;;;11.74;27.80
46886;BME280;32622;48.202;11.326;2022-09-30T08:54:51;1012.35;;;12.05;27.41
46886;BME280;32622;48.202;11.326;2022-09-30T08:56:56;1012.49;;;11.61;27.28
46886;BME280;32622;48.202;11.326;2022-09-30T08:59:05;1012.48;;;11.61;27.52
46886;BME280;32622;48.202;11.326;2022-09-30T09:01:16;1012.36;;;12.09;28.22
46886;BME280;32622;48.202;11.326;2022-09-30T09:03:26;1012.32;;;12.22;28.06
46886;BME280;32622;48.202;11.326;2022-09-30T09:05:37;1012.33;;;12.13;28.09
46886;BME280;32622;48.202;11.326;2022-09-30T09:07:49;1012.59;;;11.23;28.39
46886;BME280;32622;48.202;11.326;2022-09-30T09:10:02;1012.72;;;10.74;28.26
46886;BME280;32622;48.202;11.326;2022-09-30T09:12:20;1012.65;;;11.42;28.65
46886;BME280;32622;48.202;11.326;2022-09-30T09:14:38;1012.73;;;11.50;28.16
46886;BME280;32622;48.202;11.326;2022-09-30T09:16:49;1012.78;;;11.43;28.15
46886;BME280;32622;48.202;11.326;2022-09-30T09:19:05;1012.84;;;11.23;27.99
46886;BME280;32622;48.202;11.326;2022-09-30T09:21:22;1013.01;;;10.39;28.74
46886;BME280;32622;48.202;11.326;2022-09-30T09:23:26;1012.69;;;11.79;27.57
46886;BME280;32622;48.202;11.326;2022-09-30T09:25:32;1012.86;;;11.16;28.57
46886;BME280;32622;48.202;11.326;2022-09-30T09:27:44;1012.84;;;11.30;28.17
46886;BME280;32622;48.202;11.326;2022-09-30T09:30:00;1012.82;;;11.45;28.57
46886;BME280;32622;48.202;11.326;2022-09-30T09:32:12;1012.50;;;12.75;27.89
46886;BME280;32622;48.202;11.326;2022-09-30T09:34:15;1012.56;;;12.54;27.48
46886;BME280;32622;48.202;11.326;2022-09-30T09:36:32;1013.02;;;10.52;28.75
46886;BME280;32622;48.202;11.326;2022-09-30T09:38:59;1013.36;;;9.08;29.48
46886;BME280;32622;48.202;11.326;2022-09-30T09:41:13;1013.11;;;10.01;28.51
46886;BME280;32622;48.202;11.326;2022-09-30T09:43:25;1012.75;;;11.68;27.71
46886;BME280;32622;48.202;11.326;2022-09-30T09:45:33;1012.61;;;12.10;26.98
46886;BME280;32622;48.202;11.326;2022-09-30T09:47:38;1012.56;;;12.17;26.39
46886;BME280;32622;48.202;11.326;2022-09-30T09:49:42;1012.46;;;12.55;26.16
46886;BME280;32622;48.202;11.326;2022-09-30T09:51:50;1012.32;;;13.16;26.37
46886;BME280;32622;48.202;11.326;2022-09-30T09:53:59;1012.41;;;12.56;26.14
46886;BME280;32622;48.202;11.326;2022-09-30T09:56:12;1012.30;;;12.84;25.67
46886;BME280;32622;48.202;11.326;2022-09-30T09:58:15;1012.84;;;10.77;27.33
46886;BME280;32622;48.202;11.326;2022-09-30T10:00:24;1013.34;;;8.81;30.23
46886;BME280;32622;48.202;11.326;2022-09-30T10:02:29;1013.47;;;8.23;31.74
46886;BME280;32622;48.202;11.326;2022-09-30T10:04:32;1013.03;;;10.13;30.73
46886;BME280;32622;48.202;11.326;2022-09-30T10:06:44;1013.01;;;10.34;29.57
46886;BME280;32622;48.202;11.326;2022-09-30T10:08:53;1012.94;;;10.85;29.44
46886;BME280;32622;48.202;11.326;2022-09-30T10:10:59;1012.88;;;11.49;29.02
46886;BME280;32622;48.202;11.326;2022-09-30T10:13:03;1012.81;;;11.73;28.52
46886;BME280;32622;48.202;11.326;2022-09-30T10:15:22;1012.82;;;11.79;27.37
46886;BME280;32622;48.202;11.326;2022-09-30T10:17:28;1012.79;;;12.03;27.58
46886;BME280;32622;48.202;11.326;2022-09-30T10:19:34;1012.72;;;12.75;26.86
46886;BME280;32622;48.202;11.326;2022-09-30T10:21:37;1012.68;;;12.79;26.56
46886;BME280;32622;48.202;11.326;2022-09-30T10:23:40;1012.90;;;11.76;26.85
46886;BME280;32622;48.202;11.326;2022-09-30T10:25:54;1012.98;;;11.62;27.62
46886;BME280;32622;48.202;11.326;2022-09-30T10:27:59;1013.08;;;11.19;28.21
46886;BME280;32622;48.202;11.326;2022-09-30T10:30:03;1013.01;;;11.59;28.00
46886;BME280;32622;48.202;11.326;2022-09-30T10:32:07;1012.91;;;11.97;28.20
46886;BME280;32622;48.202;11.326;2022-09-30T10:34:15;1013.18;;;11.03;28.84
46886;BME280;32622;48.202;11.326;2022-09-30T10:36:29;1012.97;;;11.93;28.52
46886;BME280;32622;48.202;11.326;2022-09-30T10:38:33;1012.75;;;12.93;27.57
46886;BME280;32622;48.202;11.326;2022-09-30T10:40:36;1013.21;;;10.99;28.36
46886;BME280;32622;48.202;11.326;2022-09-30T10:42:40;1012.79;;;12.72;26.61
46886;BME280;32622;48.202;11.326;2022-09-30T10:44:44;1012.76;;;12.81;26.32
46886;BME280;32622;48.202;11.326;2022-09-30T10:46:50;1012.62;;;13.37;25.24
46886;BME280;32622;48.202;11.326;2022-09-30T10:48:55;1012.64;;;13.30;24.75
46886;BME280;32622;48.202;11.326;2022-09-30T10:50:59;1012.62;;;13.54;24.73
46886;BME280;32622;48.202;11.326;2022-09-30T10:53:03;1012.60;;;13.70;24.59
46886;BME280;32622;48.202;11.326;2022-09-30T10:55:24;1012.70;;;13.25;25.03
46886;BME280;32622;48.202;11.326;2022-09-30T10:57:30;1012.52;;;14.04;24.53
46886;BME280;32622;48.202;11.326;2022-09-30T10:59:36;1012.53;;;14.07;24.74
46886;BME280;32622;48.202;11.326;2022-09-30T11:01:42;1012.57;;;13.91;24.75
46886;BME280;32622;48.202;11.326;2022-09-30T11:03:55;1012.31;;;14.88;24.19
46886;BME280;32622;48.202;11.326;2022-09-30T11:06:01;1012.30;;;14.92;24.41
46886;BME280;32622;48.202;11.326;2022-09-30T11:08:12;1012.27;;;14.92;24.60
46886;BME280;32622;48.202;11.326;2022-09-30T11:10:30;1012.48;;;14.04;24.38
46886;BME280;32622;48.202;11.326;2022-09-30T11:12:42;1012.49;;;14.26;24.20
46886;BME280;32622;48.202;11.326;2022-09-30T11:14:56;1012.60;;;13.86;24.75
46886;BME280;32622;48.202;11.326;2022-09-30T11:17:14;1012.62;;;14.06;24.63
46886;BME280;32622;48.202;11.326;2022-09-30T11:19:27;1012.63;;;14.02;25.14